Flight Track Log - Related Links

Times and Time Zones

All times are in EST time to prevent confusion due to time zone crossing. See the N400PU flight status page for this flight to view local times or setup timezone preferences in your user account.

Time Position Orientation Groundspeed Altitude Reporting Facility
EST Latitude Longitude Course Direction KTS MPH feet Rate Location/Type
Mon 10:09:54 AM 39.7167 -86.3000 218° Southwest 153 176 1,300  Level Indianapolis TRACON
Mon 10:10:00 AM 39.7000 -86.3167 218° Southwest 153 176 1,600 2,909 Climbing Indianapolis TRACON
Mon 10:11:00 AM 39.6667 -86.3500 218° Southwest 221 254 4,500 2,250 Climbing Indianapolis TRACON
Mon 10:12:00 AM 39.6000 -86.3167 159° South 299 344 6,100 1,878 Climbing Indianapolis TRACON
Mon 10:13:11 AM 39.6197 -86.2053 77° East 294 338 8,600 2,182 Climbing Indianapolis Center
Mon 10:14:12 AM 39.6506 -86.0933 70° East 327 376 10,900 2,390 Climbing Indianapolis Center
Mon 10:15:14 AM 39.6931 -85.9408 70° East 380 437 13,500 2,419 Climbing Indianapolis Center
Mon 10:16:16 AM 39.7325 -85.8103 69° East 391 450 15,900 2,032 Climbing Indianapolis Center
Mon 10:17:18 AM 39.7936 -85.6867 57° Northeast 410 472 17,700 1,597 Climbing Indianapolis Center
Mon 10:18:20 AM 39.8564 -85.5514 59° Northeast 437 503 19,200 1,548 Climbing Indianapolis Center
Mon 10:19:22 AM 39.9236 -85.4078 59° Northeast 460 529 20,900 1,839 Climbing Indianapolis Center
Mon 10:20:24 AM 40.0058 -85.2308 59° Northeast 476 548 23,000 1,839 Climbing Indianapolis Center
Mon 10:21:26 AM 40.0781 -85.0811 58° Northeast 484 557 24,700 1,597 Climbing Indianapolis Center
Mon 10:22:28 AM 40.1622 -84.9439 51° Northeast 485 558 26,300 1,452 Climbing Indianapolis Center
Mon 10:23:30 AM 40.2500 -84.8069 50° Northeast 483 556 27,700 1,258 Climbing Indianapolis Center
Mon 10:24:32 AM 40.3353 -84.6692 51° Northeast 486 559 28,900 1,073 Climbing Indianapolis Center
Mon 10:25:33 AM 40.4219 -84.5278 51° Northeast 494 568 29,900 976 Climbing Indianapolis Center
Mon 10:26:35 AM 40.5075 -84.3819 52° Northeast 503 579 30,900 968 Climbing Indianapolis Center
Mon 10:27:37 AM 40.6125 -84.2044 52° Northeast 509 586 31,900 871 Climbing Indianapolis Center
Mon 10:28:39 AM 40.7006 -84.0514 53° Northeast 520 598 32,700 774 Climbing Indianapolis Center
Mon 10:29:41 AM 40.7925 -83.8936 52° Northeast 537 618 33,500 829 Climbing Indianapolis Center
Mon 10:30:42 AM 40.8839 -83.7361 52° Northeast 540 621 34,400 878 Climbing Indianapolis Center
Mon 10:31:44 AM 40.9764 -83.5775 52° Northeast 543 625 35,300 919 Climbing Indianapolis Center
Mon 10:32:46 AM 41.0711 -83.4139 52° Northeast 541 623 36,300 823 Climbing Indianapolis Center
Mon 10:33:48 AM 41.1344 -83.2339 65° Northeast 539 620 37,000 341 Climbing Indianapolis Center
Mon 10:34:49 AM 41.1667 -83.0314 78° East 554 638 37,000  Level Indianapolis Center
Mon 10:35:51 AM 41.1992 -82.8250 78° East 564 649 37,000  Level Indianapolis Center
Mon 10:36:53 AM 41.2375 -82.5753 78° East 582 670 37,000  Level Indianapolis Center
Mon 10:37:54 AM 41.2711 -82.3636 78° East 582 670 37,000  Level Indianapolis Center
Mon 10:38:56 AM 41.3033 -82.1508 79° East 581 669 37,000  Level Indianapolis Center
Mon 10:39:58 AM 41.3347 -81.9378 79° East 582 670 37,000  Level Indianapolis Center
Mon 10:40:59 AM 41.3642 -81.7422 79° East 579 666 37,000  Level Indianapolis Center
Mon 10:42:01 AM 41.3994 -81.4975 79° East 585 673 37,000  Level Indianapolis Center
Mon 10:43:03 AM 41.4303 -81.2833 79° East 581 669 37,000  Level Indianapolis Center
Mon 10:44:23 AM 41.4700 -81.0006 79° East 578 665 37,000  Level Cleveland Center
Mon 10:45:25 AM 41.5006 -80.7897 79° East 575 662 37,000  Level Cleveland Center
Mon 10:46:27 AM 41.5300 -80.5806 79° East 570 656 37,000  Level Cleveland Center
Mon 10:47:29 AM 41.5564 -80.3700 80° East 571 657 37,000  Level Cleveland Center
Mon 10:48:31 AM 41.5850 -80.1556 80° East 574 661 37,000  Level Cleveland Center
Mon 10:49:33 AM 41.6150 -79.9364 80° East 577 664 37,000  Level Cleveland Center
Mon 10:50:35 AM 41.6408 -79.7281 81° East 572 658 37,000  Level Cleveland Center
Mon 10:51:37 AM 41.6675 -79.5192 80° East 570 656 37,000  Level Cleveland Center
Mon 10:52:39 AM 41.6931 -79.3114 81° East 567 652 37,000  Level Cleveland Center
Mon 10:53:41 AM 41.7217 -79.0861 80° East 562 647 37,000  Level Cleveland Center
Mon 10:54:43 AM 41.7486 -78.8567 81° East 564 649 37,000  Level Cleveland Center
Mon 10:55:45 AM 41.7744 -78.6472 81° East 568 654 37,000  Level Cleveland Center
Mon 10:56:46 AM 41.7986 -78.4394 81° East 567 652 37,000  Level Cleveland Center
Mon 10:57:48 AM 41.8219 -78.2344 81° East 557 641 37,000  Level Cleveland Center
Mon 10:58:50 AM 41.8461 -78.0336 81° East 549 632 37,000 -857 Level Cleveland Center
Mon 10:59:40 AM 41.8533 -77.8608 87° East 561 646 35,400 -1,091 Descending New York Center
Mon 11:00:40 AM 41.8164 -77.6758 105° East 531 611 35,000 -200 Descending New York Center
Mon 11:01:40 AM 41.7706 -77.4931 109° East 515 593 35,000  Level New York Center
Mon 11:02:40 AM 41.7131 -77.2928 111° Southeast 521 600 35,000  Level New York Center
Mon 11:03:39 AM 41.6700 -77.1275 109° East 521 600 35,000 -800 Level New York Center
Mon 11:04:40 AM 41.6211 -76.9478 110° East 521 600 33,400 -1,736 Descending New York Center
Mon 11:05:40 AM 41.5742 -76.7689 109° East 521 600 31,500 -1,900 Descending New York Center
Mon 11:06:40 AM 41.5192 -76.5728 110° East 516 594 29,600 -1,750 Descending New York Center
Mon 11:07:40 AM 41.4697 -76.3911 110° East 516 594 28,000 -1,850 Descending New York Center
Mon 11:08:40 AM 41.4181 -76.1989 110° East 528 608 25,900 -2,250 Descending New York Center
Mon 11:09:40 AM 41.3692 -76.0372 112° Southeast 533 613 23,500 -2,550 Descending New York Center
Mon 11:10:40 AM 41.3228 -75.8622 109° East 519 597 20,800 -2,600 Descending New York Center
Mon 11:11:40 AM 41.2733 -75.6986 112° Southeast 493 567 18,300 -2,650 Descending New York Center
Mon 11:12:40 AM 41.2236 -75.5431 113° Southeast 470 541 15,500 -2,750 Descending New York Center
Mon 11:13:40 AM 41.1694 -75.3822 114° Southeast 439 505 12,800 -2,400 Descending New York Center
Mon 11:14:40 AM 41.1267 -75.2472 113° Southeast 416 479 10,700 -2,000 Descending New York Center
Mon 11:15:40 AM 41.0889 -75.1428 116° Southeast 366 421 8,800 -1,800 Descending New York Center
Mon 11:16:40 AM 41.0533 -75.0358 114° Southeast 332 382 7,100 -1,361 Descending New York Center
Mon 11:17:39 AM 41.0194 -74.9319 113° Southeast 312 359 6,100 -800 Descending New York Center
Mon 11:18:40 AM 41.0008 -74.8072 101° East 307 353 5,500 -992 Descending New York Center
Mon 11:19:40 AM 41.0003 -74.7000 90° East 300 345 4,100 -700 Descending New York Center
Mon 11:20:40 AM 41.0264 -74.6050 70° East 276 318 4,100  Level New York Center
Mon 11:21:40 AM 41.0461 -74.5100 75° East 275 316 4,100 -450 Level New York Center
Mon 11:22:40 AM 40.9869 -74.4736 155° Southeast 181 208 3,200 -500 Descending New York Center
Mon 11:23:40 AM 40.9247 -74.4647 174° South 217 250 3,100 -50 Descending New York Center
Mon 11:24:40 AM 40.8628 -74.4478 168° South 224 258 3,100 -64 Level New York Center
Mon 11:25:14 AM 40.8333 -74.4167 141° Southeast 244 281 3,000 -341 Descending New York TRACON
Mon 11:26:08 AM 40.7833 -74.3667 143° Southeast 241 277 2,600 -579 Descending New York TRACON
Mon 11:27:08 AM 40.7333 -74.3167 143° Southeast 197 227 1,900 -300 Descending New York TRACON
Mon 11:28:08 AM 40.7167 -74.2667 114° Southeast 160 184 2,000 -200 Climbing New York TRACON
Mon 11:29:08 AM 40.7500 -74.2167 49° Northeast 168 193 1,500 -250 Descending New York TRACON
Mon 11:30:08 AM 40.7667 -74.1833 57° Northeast 151 174 1,500 -50 Level New York TRACON
Mon 11:31:08 AM 40.8000 -74.1333 49° Northeast 145 167 1,400 -333 Descending New York TRACON
Mon 11:32:14 AM 40.8167 -74.1000 57° Northeast 108 124 800 -545 Descending New York TRACON
Mon 11:34:00 AM 40.8500 -74.0500 101° East  Level FlightAware Approximate
Mon 11:41:00 AM 40.8501 -74.0608 101° East  Level Estimated

Login

Don't have an account? Register now (free) for customized features, flight alerts, and more!